Time;durP1;ratioP1;P1;durP2;ratioP2;P2;SDS_P1;SDS_P2;PMS_P1;PMS_P2;Temp;Humidity;BMP_temperature;BMP_pressure;BME280_temperature;BME280_humidity;BME280_pressure;Samples;Min_cycle;Max_cycle;Signal;HPM_P1;HPM_P2
2023/11/14 00:00:35;;;;;;;0.55;0.40;;;;;;;11.70;nan;95100.34;2041308;29;20051;-61
2023/11/14 00:01:36;;;;;;;0.45;0.30;;;;;;;11.70;nan;95102.94;2042375;29;20043;-61
2023/11/14 00:02:37;;;;;;;0.40;0.40;;;;;;;11.69;nan;95109.09;2042457;29;20044;-62
2023/11/14 00:03:38;;;;;;;0.45;0.20;;;;;;;11.70;nan;95089.09;2042286;29;20047;-61
2023/11/14 00:04:40;;;;;;;0.60;0.30;;;;;;;11.71;nan;95111.59;2042307;29;20503;-62
2023/11/14 00:05:41;;;;;;;0.93;0.30;;;;;;;11.70;nan;95117.72;2042244;29;20054;-61
2023/11/14 00:06:42;;;;;;;0.47;0.45;;;;;;;11.70;nan;95117.72;2041761;29;20058;-61
2023/11/14 00:07:43;;;;;;;1.25;0.47;;;;;;;11.69;nan;95129.88;2041834;29;20055;-61
2023/11/14 00:08:45;;;;;;;0.17;0.13;;;;;;;11.65;nan;95112.84;2041472;29;20477;-61
2023/11/14 00:09:47;;;;;;;0.32;0.32;;;;;;;11.68;nan;95125.63;2042553;29;20392;-61
2023/11/14 00:10:49;;;;;;;0.55;0.30;;;;;;;11.68;nan;95111.78;2042259;29;20052;-61
2023/11/14 00:11:50;;;;;;;0.20;0.20;;;;;;;11.67;nan;95110.13;2041898;29;20404;-61
2023/11/14 00:12:51;;;;;;;0.40;0.32;;;;;;;11.65;nan;95112.84;2042306;29;20065;-60
2023/11/14 00:13:52;;;;;;;1.20;0.40;;;;;;;11.63;nan;95119.91;2042275;29;20059;-61
2023/11/14 00:14:53;;;;;;;0.22;0.20;;;;;;;11.61;nan;95103.56;2042366;29;20396;-61
2023/11/14 00:15:54;;;;;;;0.65;0.40;;;;;;;11.64;nan;95129.34;2042315;29;20052;-60
2023/11/14 00:16:55;;;;;;;0.40;0.30;;;;;;;11.62;nan;95097.41;2042408;29;20052;-61
2023/11/14 00:17:58;;;;;;;0.40;0.20;;;;;;;11.60;nan;95120.09;2042206;29;20389;-60
2023/11/14 00:18:59;;;;;;;0.93;0.45;;;;;;;11.58;nan;95124.56;2042260;29;20055;-60
2023/11/14 00:20:00;;;;;;;1.17;0.35;;;;;;;11.57;nan;95109.03;2041954;29;20055;-59
2023/11/14 00:21:02;;;;;;;0.80;0.30;;;;;;;11.54;nan;95097.06;2042186;29;20047;-61
2023/11/14 00:22:04;;;;;;;0.30;0.10;;;;;;;11.54;nan;95098.84;2042232;29;20055;-59
2023/11/14 00:23:05;;;;;;;0.30;0.30;;;;;;;11.56;nan;95110.00;2041958;29;20051;-60
2023/11/14 00:24:09;;;;;;;0.95;0.50;;;;;;;11.54;nan;95094.47;2042072;29;20044;-61
2023/11/14 00:25:10;;;;;;;0.40;0.20;;;;;;;11.53;nan;95111.03;2042309;29;20058;-61
2023/11/14 00:26:12;;;;;;;0.95;0.40;;;;;;;11.54;nan;95125.69;2042182;29;20058;-60
2023/11/14 00:27:17;;;;;;;1.75;0.30;;;;;;;11.55;nan;95136.94;2033587;29;20048;-60
2023/11/14 00:28:18;;;;;;;5.18;1.23;;;;;;;11.52;nan;95127.56;2033671;29;20441;-61
2023/11/14 00:29:20;;;;;;;1.95;0.30;;;;;;;11.55;nan;95144.72;2034006;29;20048;-60
2023/11/14 00:30:21;;;;;;;0.47;0.20;;;;;;;11.54;nan;95138.69;2025801;29;20056;-62
2023/11/14 00:31:24;;;;;;;0.45;0.30;;;;;;;11.55;nan;95137.75;2033733;29;20590;-62
2023/11/14 00:32:25;;;;;;;0.40;0.30;;;;;;;11.51;nan;95130.25;2033692;29;20108;-61
2023/11/14 00:33:26;;;;;;;0.40;0.20;;;;;;;11.50;nan;95150.22;2033877;29;20054;-62
2023/11/14 00:34:29;;;;;;;0.65;0.25;;;;;;;11.47;nan;95164.25;2041716;29;20067;-62
2023/11/14 00:35:30;;;;;;;0.55;0.30;;;;;;;11.41;nan;95161.19;2033742;29;20059;-62
2023/11/14 00:36:31;;;;;;;0.57;0.30;;;;;;;11.31;nan;95162.72;2026075;29;20067;-62
2023/11/14 00:37:33;;;;;;;0.63;0.38;;;;;;;11.16;nan;95156.72;2033567;29;20048;-61
2023/11/14 00:38:34;;;;;;;4.07;0.43;;;;;;;11.04;nan;95166.13;2041522;29;20507;-61
2023/11/14 00:39:36;;;;;;;0.90;0.47;;;;;;;10.93;nan;95184.13;2041898;29;20043;-61
2023/11/14 00:40:39;;;;;;;0.73;0.40;;;;;;;10.79;nan;95167.63;2042460;29;20409;-61
2023/11/14 00:41:40;;;;;;;0.98;0.50;;;;;;;10.70;nan;95170.78;2042064;29;20040;-62
2023/11/14 00:42:41;;;;;;;0.85;0.45;;;;;;;10.64;nan;95178.09;2033395;29;20048;-62
2023/11/14 00:43:42;;;;;;;1.88;0.50;;;;;;;10.58;nan;95193.16;2033640;29;20048;-62
2023/11/14 00:44:43;;;;;;;2.08;0.55;;;;;;;10.54;nan;95201.19;2041906;29;20069;-62
2023/11/14 00:45:45;;;;;;;2.13;0.40;;;;;;;10.51;nan;95201.38;2040876;29;20499;-62
2023/11/14 00:46:46;;;;;;;3.10;0.63;;;;;;;10.45;nan;95212.97;2041943;29;20047;-62
2023/11/14 00:47:47;;;;;;;1.65;0.60;;;;;;;10.43;nan;95211.41;2033773;29;20044;-62
2023/11/14 00:48:48;;;;;;;1.60;0.30;;;;;;;10.41;nan;95202.84;2033576;29;20052;-62
2023/11/14 00:49:49;;;;;;;2.58;0.95;;;;;;;10.36;nan;95208.31;2042115;29;20054;-63
2023/11/14 00:50:51;;;;;;;4.90;0.90;;;;;;;10.28;nan;95221.72;2041651;29;20049;-62
2023/11/14 00:51:52;;;;;;;3.72;0.80;;;;;;;10.19;nan;95224.84;2041833;29;20055;-62
2023/11/14 00:52:53;;;;;;;2.50;0.70;;;;;;;10.14;nan;95229.47;2041521;29;20070;-62
2023/11/14 00:53:56;;;;;;;4.03;1.10;;;;;;;10.05;nan;95243.78;2042058;29;20469;-61
2023/11/14 00:54:57;;;;;;;3.72;0.85;;;;;;;9.97;nan;95242.53;2033373;29;20055;-62
2023/11/14 00:55:58;;;;;;;2.92;0.82;;;;;;;9.87;nan;95235.28;2025609;29;20052;-62
2023/11/14 00:56:59;;;;;;;4.50;0.90;;;;;;;9.79;nan;95234.06;2033528;29;20067;-63
2023/11/14 00:58:00;;;;;;;4.00;0.98;;;;;;;9.72;nan;95241.34;2033384;29;20048;-63
2023/11/14 00:59:03;;;;;;;4.57;0.90;;;;;;;9.64;nan;95236.56;2033397;29;20060;-62
2023/11/14 01:00:05;;;;;;;3.60;0.82;;;;;;;9.58;nan;95234.31;2041015;29;20096;-62
2023/11/14 01:01:07;;;;;;;5.35;1.35;;;;;;;9.52;nan;95229.50;2040502;29;20036;-60
2023/11/14 01:02:09;;;;;;;5.15;1.17;;;;;;;9.48;nan;95221.03;2041924;29;20059;-60
2023/11/14 01:03:10;;;;;;;7.53;1.17;;;;;;;9.42;nan;95197.22;2041731;29;20051;-63
2023/11/14 01:04:12;;;;;;;3.45;0.77;;;;;;;9.37;nan;95201.81;2041925;29;20047;-62
2023/11/14 01:05:13;;;;;;;2.90;0.90;;;;;;;9.35;nan;95206.25;2041939;29;20048;-62
2023/11/14 01:06:14;;;;;;;5.25;0.90;;;;;;;9.28;nan;95197.97;2033580;29;20063;-61
2023/11/14 01:07:15;;;;;;;3.00;0.80;;;;;;;9.26;nan;95220.53;2033412;29;20059;-63
2023/11/14 01:08:16;;;;;;;4.57;1.17;;;;;;;9.25;nan;95232.66;2041526;29;20052;-62
2023/11/14 01:09:17;;;;;;;5.18;1.27;;;;;;;9.21;nan;95238.91;2041253;29;20403;-62
2023/11/14 01:10:19;;;;;;;3.00;1.10;;;;;;;9.16;nan;95238.31;2041980;29;20064;-61
2023/11/14 01:11:20;;;;;;;5.07;1.52;;;;;;;9.15;nan;95253.97;2033360;29;20500;-62
2023/11/14 01:12:21;;;;;;;4.13;1.38;;;;;;;9.12;nan;95260.16;2032686;29;20052;-62
2023/11/14 01:13:22;;;;;;;5.72;1.00;;;;;;;9.09;nan;95267.22;2033762;29;20052;-62
2023/11/14 01:14:23;;;;;;;8.25;1.60;;;;;;;9.07;nan;95262.13;2033156;29;20467;-62
2023/11/14 01:15:25;;;;;;;7.60;1.77;;;;;;;9.03;nan;95258.88;2041333;29;20068;-62
2023/11/14 01:16:26;;;;;;;6.45;1.17;;;;;;;8.98;nan;95242.75;2041921;29;20051;-60
2023/11/14 01:17:27;;;;;;;3.67;1.20;;;;;;;8.95;nan;95255.84;2041483;29;20056;-62
2023/11/14 01:18:28;;;;;;;4.40;1.17;;;;;;;8.92;nan;95252.59;2041806;29;20148;-63
2023/11/14 01:19:29;;;;;;;5.10;1.38;;;;;;;8.89;nan;95244.97;2041741;29;20059;-61
2023/11/14 01:20:31;;;;;;;5.88;1.50;;;;;;;8.87;nan;95250.22;2041862;29;20047;-61
2023/11/14 01:21:32;;;;;;;7.65;1.63;;;;;;;8.86;nan;95261.50;2033190;29;20059;-62
2023/11/14 01:22:33;;;;;;;7.97;1.40;;;;;;;8.85;nan;95262.44;2033393;29;20048;-62
2023/11/14 01:23:34;;;;;;;9.63;1.90;;;;;;;8.84;nan;95281.47;2032810;29;20059;-62
2023/11/14 01:24:36;;;;;;;4.68;1.25;;;;;;;8.83;nan;95290.16;2033379;29;20447;-62
2023/11/14 01:25:39;;;;;;;7.03;2.03;;;;;;;8.81;nan;95282.44;2041917;29;20044;-61
2023/11/14 01:26:40;;;;;;;5.13;1.42;;;;;;;8.80;nan;95269.59;2041726;29;20044;-61
2023/11/14 01:27:42;;;;;;;4.90;1.30;;;;;;;8.79;nan;95263.59;2041885;29;20044;-61
2023/11/14 01:28:43;;;;;;;8.82;2.75;;;;;;;8.78;nan;95259.31;2041689;29;20058;-62
2023/11/14 01:29:45;;;;;;;12.30;1.63;;;;;;;8.75;nan;95267.25;2033319;29;20083;-62
2023/11/14 01:30:46;;;;;;;6.93;2.00;;;;;;;8.74;nan;95265.59;2033665;29;20489;-62
2023/11/14 01:31:47;;;;;;;8.15;1.77;;;;;;;8.75;nan;95261.25;2041395;29;20044;-62
2023/11/14 01:32:48;;;;;;;9.02;2.00;;;;;;;8.74;nan;95254.38;2033659;29;20473;-62
2023/11/14 01:33:50;;;;;;;9.38;2.03;;;;;;;8.73;nan;95269.06;2025488;29;20037;-61
2023/11/14 01:34:51;;;;;;;7.28;1.60;;;;;;;8.73;nan;95263.88;2033511;29;20044;-61
2023/11/14 01:35:52;;;;;;;6.90;1.70;;;;;;;8.72;nan;95264.81;2041184;29;20051;-62
2023/11/14 01:36:56;;;;;;;11.27;2.13;;;;;;;8.72;nan;95256.22;2042055;29;20103;-61
2023/11/14 01:37:57;;;;;;;8.82;1.83;;;;;;;8.74;nan;95256.97;2041769;29;20400;-61
2023/11/14 01:38:58;;;;;;;8.73;2.00;;;;;;;8.74;nan;95270.75;2032877;29;20056;-62
2023/11/14 01:39:59;;;;;;;7.57;1.83;;;;;;;8.75;nan;95267.25;2033402;29;20428;-61
2023/11/14 01:41:00;;;;;;;7.05;2.17;;;;;;;8.75;nan;95269.84;2033261;29;20056;-62
2023/11/14 01:42:03;;;;;;;6.00;1.48;;;;;;;8.74;nan;95267.31;2033557;29;20064;-62
2023/11/14 01:43:04;;;;;;;9.25;2.28;;;;;;;8.73;nan;95268.25;2033512;29;20642;-62
2023/11/14 01:44:05;;;;;;;8.80;1.98;;;;;;;8.72;nan;95264.00;2025329;29;20414;-61
2023/11/14 01:45:06;;;;;;;9.07;2.22;;;;;;;8.70;nan;95258.88;2033342;29;20058;-62
2023/11/14 01:46:07;;;;;;;11.98;1.88;;;;;;;8.68;nan;95252.94;2041878;29;20043;-61
2023/11/14 01:47:09;;;;;;;8.50;1.80;;;;;;;8.67;nan;95248.69;2041872;29;20074;-61
2023/11/14 01:48:10;;;;;;;9.25;1.73;;;;;;;8.68;nan;95246.94;2025222;29;20056;-62
2023/11/14 01:49:11;;;;;;;10.35;2.47;;;;;;;8.68;nan;95246.94;2025646;29;20469;-62
2023/11/14 01:50:12;;;;;;;6.05;1.33;;;;;;;8.63;nan;95239.38;2025390;29;20052;-61
2023/11/14 01:51:17;;;;;;;7.95;2.90;;;;;;;8.65;nan;95214.28;2010102;29;20399;-61
2023/11/14 01:52:18;;;;;;;10.23;2.25;;;;;;;8.66;nan;95209.94;2026256;29;20044;-62
2023/11/14 01:53:20;;;;;;;11.73;1.90;;;;;;;8.64;nan;95232.50;2026032;29;20056;-61
2023/11/14 01:54:21;;;;;;;9.25;1.75;;;;;;;8.63;nan;95260.09;2033363;29;20408;-61
2023/11/14 01:55:25;;;;;;;9.48;1.85;;;;;;;8.65;nan;95255.69;2041886;29;20044;-60
2023/11/14 01:56:27;;;;;;;6.43;1.80;;;;;;;8.65;nan;95258.28;2032568;29;20063;-60
2023/11/14 01:57:28;;;;;;;14.95;2.78;;;;;;;8.66;nan;95265.16;2034938;29;20489;-60
2023/11/14 01:58:29;;;;;;;8.93;1.67;;;;;;;8.65;nan;95257.44;2026990;29;20056;-60
2023/11/14 01:59:30;;;;;;;7.05;1.50;;;;;;;8.61;nan;95255.03;2027050;29;20057;-60
2023/11/14 02:00:32;;;;;;;7.55;1.77;;;;;;;8.65;nan;95267.78;2019339;29;20068;-60
2023/11/14 02:01:33;;;;;;;10.40;2.45;;;;;;;8.66;nan;95261.69;2011601;29;20049;-60
2023/11/14 02:02:34;;;;;;;11.98;2.38;;;;;;;8.66;nan;95262.56;2011563;29;20053;-60
2023/11/14 02:03:35;;;;;;;7.93;1.50;;;;;;;8.66;nan;95261.69;2018970;29;20049;-59
2023/11/14 02:04:37;;;;;;;9.68;1.83;;;;;;;8.65;nan;95257.44;2027142;29;20501;-59
2023/11/14 02:05:38;;;;;;;4.53;1.27;;;;;;;8.64;nan;95264.38;2019382;29;20049;-59
2023/11/14 02:06:39;;;;;;;10.23;2.05;;;;;;;8.65;nan;95266.03;2026984;29;20532;-59
2023/11/14 02:07:40;;;;;;;10.50;1.95;;;;;;;8.64;nan;95264.38;2034833;29;20053;-59
2023/11/14 02:08:41;;;;;;;8.02;1.90;;;;;;;8.64;nan;95248.03;2019020;29;20040;-58
2023/11/14 02:09:42;;;;;;;7.55;1.55;;;;;;;8.64;nan;95256.63;2019545;29;20040;-60
2023/11/14 02:10:44;;;;;;;7.03;1.60;;;;;;;8.63;nan;95260.09;2027101;29;20052;-59
2023/11/14 02:11:45;;;;;;;11.35;2.00;;;;;;;8.63;nan;95260.09;2033914;29;20400;-58
2023/11/14 02:12:46;;;;;;;11.02;2.10;;;;;;;8.64;nan;95255.78;2043301;29;20051;-59
2023/11/14 02:13:47;;;;;;;9.85;1.67;;;;;;;8.65;nan;95254.84;2034522;29;20056;-59
2023/11/14 02:14:48;;;;;;;11.68;1.88;;;;;;;8.63;nan;95256.69;2027628;29;20064;-58
2023/11/14 02:15:49;;;;;;;6.80;1.50;;;;;;;8.64;nan;95266.13;2034671;29;20044;-59
2023/11/14 02:16:55;;;;;;;8.02;1.75;;;;;;;8.64;nan;95268.72;2042715;29;20412;-58
2023/11/14 02:17:56;;;;;;;6.38;2.00;;;;;;;8.61;nan;95265.38;2034729;29;20055;-58
2023/11/14 02:18:57;;;;;;;8.77;1.85;;;;;;;8.63;nan;95267.88;2026737;29;20393;-58
2023/11/14 02:19:59;;;;;;;7.90;1.90;;;;;;;8.63;nan;95279.97;2027069;29;20049;-58
2023/11/14 02:21:00;;;;;;;13.07;2.30;;;;;;;8.62;nan;95271.38;2026810;29;20488;-58
2023/11/14 02:22:01;;;;;;;9.18;1.83;;;;;;;8.63;nan;95279.97;2026869;29;20060;-58
2023/11/14 02:23:03;;;;;;;6.57;1.52;;;;;;;8.61;nan;95275.72;2019142;29;20041;-58
2023/11/14 02:24:05;;;;;;;4.82;1.27;;;;;;;8.61;nan;95277.47;2026817;29;20045;-58
2023/11/14 02:25:07;;;;;;;10.50;2.20;;;;;;;8.63;nan;95287.75;2019184;29;20049;-57
2023/11/14 02:26:08;;;;;;;13.70;2.60;;;;;;;8.62;nan;95271.38;2018622;29;20057;-58
2023/11/14 02:27:09;;;;;;;3.83;1.42;;;;;;;8.59;nan;95272.38;2018889;29;20490;-58
2023/11/14 02:28:10;;;;;;;11.30;2.38;;;;;;;8.59;nan;95272.38;2019259;29;20131;-58
2023/11/14 02:29:20;;;;;;;10.95;1.85;;;;;;;8.61;nan;95274.91;2026388;29;20056;-58
2023/11/14 02:30:21;;;;;;;7.57;1.70;;;;;;;8.59;nan;95274.13;2036108;29;20412;-58
2023/11/14 02:31:24;;;;;;;8.85;2.40;;;;;;;8.59;nan;95269.78;2043301;29;20047;-57
2023/11/14 02:32:25;;;;;;;10.50;2.00;;;;;;;8.59;nan;95272.38;2043151;29;20056;-57
2023/11/14 02:33:26;;;;;;;9.73;2.33;;;;;;;8.58;nan;95277.59;2026518;29;20075;-57
2023/11/14 02:34:27;;;;;;;11.90;2.33;;;;;;;8.59;nan;95272.38;2026839;29;20048;-57
2023/11/14 02:35:28;;;;;;;10.75;2.63;;;;;;;8.61;nan;95286.06;2042788;29;20066;-57
2023/11/14 02:36:30;;;;;;;12.80;2.30;;;;;;;8.59;nan;95287.06;2042626;29;20043;-57
2023/11/14 02:37:31;;;;;;;9.93;2.08;;;;;;;8.63;nan;95287.75;2042421;29;20051;-57
2023/11/14 02:38:32;;;;;;;10.02;2.10;;;;;;;8.61;nan;95283.50;2042710;29;20491;-57
2023/11/14 02:39:34;;;;;;;10.02;2.28;;;;;;;8.63;nan;95282.56;2042662;29;20048;-57
2023/11/14 02:40:36;;;;;;;7.85;1.83;;;;;;;8.59;nan;95277.53;2043125;29;20047;-57
2023/11/14 02:41:37;;;;;;;8.55;1.92;;;;;;;8.64;nan;95295.44;2034054;29;20055;-57
2023/11/14 02:42:40;;;;;;;8.63;2.28;;;;;;;8.64;nan;95292.84;2034374;29;20063;-61
2023/11/14 02:43:41;;;;;;;6.82;1.55;;;;;;;8.64;nan;95282.50;2034616;29;20059;-57
2023/11/14 02:44:43;;;;;;;9.98;1.70;;;;;;;8.64;nan;95290.25;2034425;29;20044;-57
2023/11/14 02:45:45;;;;;;;8.55;2.38;;;;;;;8.63;nan;95285.16;2042515;29;20052;-57
2023/11/14 02:46:46;;;;;;;10.70;2.20;;;;;;;8.61;nan;95283.50;2034645;29;20055;-57
2023/11/14 02:47:48;;;;;;;11.07;2.13;;;;;;;8.61;nan;95282.66;2034705;29;20055;-57
2023/11/14 02:48:49;;;;;;;11.20;2.15;;;;;;;8.60;nan;95284.38;2042755;29;20044;-59
2023/11/14 02:49:56;;;;;;;7.72;2.10;;;;;;;8.58;nan;95278.47;2043031;29;20043;-60
2023/11/14 02:50:57;;;;;;;7.15;1.75;;;;;;;8.56;nan;95284.63;2043179;29;20044;-60
2023/11/14 02:51:58;;;;;;;7.43;2.10;;;;;;;8.55;nan;95290.72;2034728;29;20522;-59
2023/11/14 02:52:59;;;;;;;9.80;1.85;;;;;;;8.55;nan;95277.78;2034367;29;20060;-59
2023/11/14 02:54:00;;;;;;;8.73;2.28;;;;;;;8.53;nan;95282.22;2042451;29;20460;-59
2023/11/14 02:55:02;;;;;;;9.57;2.10;;;;;;;8.49;nan;95276.31;2034681;29;20071;-59
2023/11/14 02:56:04;;;;;;;12.50;2.70;;;;;;;8.47;nan;95267.81;2026532;29;20071;-59
2023/11/14 02:57:07;;;;;;;12.25;1.80;;;;;;;8.45;nan;95263.66;2034471;29;20052;-58
2023/11/14 02:58:12;;;;;;;11.55;2.20;;;;;;;8.46;nan;95266.13;2034337;29;20052;-58
2023/11/14 02:59:15;;;;;;;10.70;2.67;;;;;;;8.46;nan;95262.72;2034594;29;20055;-58
2023/11/14 03:00:16;;;;;;;12.77;2.40;;;;;;;8.46;nan;95271.31;2043009;29;20076;-58
2023/11/14 03:01:17;;;;;;;8.77;2.15;;;;;;;8.46;nan;95286.00;2041045;29;20052;-58
2023/11/14 03:02:18;;;;;;;15.93;2.70;;;;;;;8.46;nan;95293.78;2034537;29;20431;-58
2023/11/14 03:03:19;;;;;;;8.23;1.85;;;;;;;8.45;nan;95295.53;2034027;29;20067;-58
2023/11/14 03:04:20;;;;;;;11.10;2.10;;;;;;;8.48;nan;95290.19;2042727;29;20043;-57
2023/11/14 03:05:21;;;;;;;10.63;2.80;;;;;;;8.49;nan;95298.78;2042397;29;20063;-58
2023/11/14 03:06:23;;;;;;;10.88;2.42;;;;;;;8.49;nan;95306.56;2042559;29;20066;-58
2023/11/14 03:07:24;;;;;;;11.07;1.92;;;;;;;8.49;nan;95309.97;2041768;29;20472;-57
2023/11/14 03:08:25;;;;;;;9.18;2.42;;;;;;;8.49;nan;95309.13;2040924;29;20471;-57
2023/11/14 03:09:27;;;;;;;6.68;1.95;;;;;;;8.48;nan;95299.72;2042218;29;20051;-58
2023/11/14 03:10:30;;;;;;;9.13;2.95;;;;;;;8.45;nan;95311.06;2035038;29;20060;-59
2023/11/14 03:11:31;;;;;;;9.93;2.53;;;;;;;8.46;nan;95304.94;2035149;29;20485;-58
2023/11/14 03:12:32;;;;;;;11.00;2.00;;;;;;;8.45;nan;95295.53;2035310;29;20048;-58
2023/11/14 03:13:34;;;;;;;9.15;2.22;;;;;;;8.43;nan;95296.50;2043483;29;20480;-58
2023/11/14 03:14:35;;;;;;;9.18;1.77;;;;;;;8.45;nan;95299.88;2043393;29;20051;-58
2023/11/14 03:15:36;;;;;;;10.70;2.53;;;;;;;8.41;nan;95300.91;2043250;29;20052;-60
2023/11/14 03:16:37;;;;;;;12.77;2.05;;;;;;;8.45;nan;95311.06;2034711;29;20055;-59
2023/11/14 03:17:38;;;;;;;11.98;2.42;;;;;;;8.44;nan;95305.94;2034487;29;20052;-59
2023/11/14 03:18:40;;;;;;;11.27;2.10;;;;;;;8.42;nan;95297.41;2034398;29;20048;-59
2023/11/14 03:19:41;;;;;;;6.70;1.88;;;;;;;8.43;nan;95307.69;2034207;29;20052;-59
2023/11/14 03:20:42;;;;;;;12.10;2.58;;;;;;;8.42;nan;95305.16;2042663;29;20051;-60
2023/11/14 03:21:43;;;;;;;6.45;1.80;;;;;;;8.42;nan;95284.47;2042871;29;20453;-60
2023/11/14 03:22:44;;;;;;;9.60;2.65;;;;;;;8.47;nan;95304.03;2042547;29;20059;-59
2023/11/14 03:23:45;;;;;;;12.40;2.60;;;;;;;8.48;nan;95302.31;2042853;29;20048;-59
2023/11/14 03:24:47;;;;;;;11.38;2.20;;;;;;;8.47;nan;95301.44;2042701;29;20054;-59
2023/11/14 03:25:48;;;;;;;10.35;2.05;;;;;;;8.48;nan;95302.31;2042577;29;20059;-60
2023/11/14 03:26:49;;;;;;;10.73;2.55;;;;;;;8.43;nan;95292.19;2042441;29;20369;-60
2023/11/14 03:27:51;;;;;;;10.88;2.38;;;;;;;8.48;nan;95303.13;2042535;29;20043;-60
2023/11/14 03:28:52;;;;;;;10.18;1.67;;;;;;;8.47;nan;95303.19;2042543;29;20062;-59
2023/11/14 03:29:53;;;;;;;11.45;2.17;;;;;;;8.48;nan;95307.47;2042741;29;20043;-59
2023/11/14 03:30:54;;;;;;;8.60;1.60;;;;;;;8.51;nan;95310.75;2034096;29;20051;-60
2023/11/14 03:31:55;;;;;;;9.18;2.05;;;;;;;8.51;nan;95292.63;2034089;29;20040;-60
2023/11/14 03:32:57;;;;;;;8.70;2.00;;;;;;;8.50;nan;95293.56;2042593;29;20412;-59
2023/11/14 03:33:58;;;;;;;9.02;1.98;;;;;;;8.51;nan;95305.56;2034311;29;20527;-59
2023/11/14 03:34:59;;;;;;;13.63;2.95;;;;;;;8.51;nan;95302.16;2026594;29;20069;-60
2023/11/14 03:36:00;;;;;;;7.55;2.15;;;;;;;8.52;nan;95290.88;2033979;29;20052;-60
2023/11/14 03:37:01;;;;;;;9.80;2.25;;;;;;;8.51;nan;95284.84;2042544;29;20055;-60
2023/11/14 03:38:03;;;;;;;7.60;1.80;;;;;;;8.50;nan;95293.56;2042458;29;20519;-60
2023/11/14 03:39:05;;;;;;;18.45;2.25;;;;;;;8.49;nan;95281.50;2042563;29;20054;-60
2023/11/14 03:40:06;;;;;;;5.78;1.50;;;;;;;8.46;nan;95292.00;2042859;29;20427;-60
2023/11/14 03:41:07;;;;;;;10.80;2.03;;;;;;;8.48;nan;95295.38;2042277;29;20063;-60
2023/11/14 03:42:09;;;;;;;10.80;2.20;;;;;;;8.46;nan;95289.44;2042523;29;20056;-60
2023/11/14 03:43:10;;;;;;;8.23;2.35;;;;;;;8.46;nan;95288.59;2042600;29;20400;-60
2023/11/14 03:44:11;;;;;;;8.98;1.75;;;;;;;8.45;nan;95297.28;2034289;29;20055;-60
2023/11/14 03:45:12;;;;;;;7.28;1.85;;;;;;;8.44;nan;95293.00;2026401;29;20040;-60
2023/11/14 03:46:13;;;;;;;6.88;1.88;;;;;;;8.46;nan;95294.59;2034041;29;20071;-61
2023/11/14 03:47:15;;;;;;;14.55;2.95;;;;;;;8.45;nan;95300.69;2034402;29;20048;-60
2023/11/14 03:48:16;;;;;;;3.78;1.63;;;;;;;8.47;nan;95305.78;2034156;29;20055;-59
2023/11/14 03:49:17;;;;;;;7.57;2.00;;;;;;;8.47;nan;95314.38;2034024;29;20056;-59
2023/11/14 03:50:18;;;;;;;7.50;1.63;;;;;;;8.49;nan;95309.97;2034136;29;20053;-59
2023/11/14 03:51:20;;;;;;;10.88;2.20;;;;;;;8.51;nan;95315.91;2042668;29;20392;-60
2023/11/14 03:52:21;;;;;;;10.98;1.70;;;;;;;8.50;nan;95314.25;2042585;29;20071;-59
2023/11/14 03:53:22;;;;;;;8.88;2.03;;;;;;;8.49;nan;95315.16;2042379;29;20063;-59
2023/11/14 03:54:23;;;;;;;9.93;2.08;;;;;;;8.52;nan;95325.34;2042356;29;20059;-60
2023/11/14 03:55:24;;;;;;;10.60;1.83;;;;;;;8.52;nan;95322.75;2042388;29;20477;-59
2023/11/14 03:56:25;;;;;;;8.40;1.95;;;;;;;8.53;nan;95321.84;2042458;29;20043;-59
2023/11/14 03:57:26;;;;;;;12.27;2.55;;;;;;;8.53;nan;95313.25;2042550;29;20075;-60
2023/11/14 03:58:27;;;;;;;9.20;2.15;;;;;;;8.52;nan;95317.56;2041966;29;20063;-60
2023/11/14 03:59:28;;;;;;;7.60;2.17;;;;;;;8.52;nan;95330.50;2042681;29;20070;-60
2023/11/14 04:00:30;;;;;;;9.30;1.90;;;;;;;8.50;nan;95314.25;2041736;29;20040;-61
2023/11/14 04:01:31;;;;;;;4.75;1.63;;;;;;;8.53;nan;95324.44;2034030;29;20060;-60
2023/11/14 04:02:32;;;;;;;6.57;1.67;;;;;;;8.54;nan;95320.09;2026320;29;20056;-60
2023/11/14 04:03:33;;;;;;;9.13;2.25;;;;;;;8.55;nan;95321.75;2026384;29;20060;-60
2023/11/14 04:04:34;;;;;;;13.35;2.80;;;;;;;8.53;nan;95324.44;2034083;29;20048;-61
2023/11/14 04:05:37;;;;;;;12.43;2.45;;;;;;;8.53;nan;95327.03;2033391;29;20059;-61
2023/11/14 04:06:38;;;;;;;8.40;1.88;;;;;;;8.53;nan;95337.38;2034029;29;20040;-61
2023/11/14 04:07:39;;;;;;;7.55;1.90;;;;;;;8.53;nan;95329.63;2041927;29;20067;-61
2023/11/14 04:08:40;;;;;;;8.75;2.13;;;;;;;8.54;nan;95336.47;2042035;29;20040;-61
2023/11/14 04:09:41;;;;;;;11.20;2.55;;;;;;;8.52;nan;95325.34;2042221;29;20050;-61
2023/11/14 04:10:42;;;;;;;10.10;2.38;;;;;;;8.53;nan;95319.28;2042478;29;20491;-61
2023/11/14 04:11:47;;;;;;;10.95;2.30;;;;;;;8.51;nan;95313.31;2042267;29;20056;-61
2023/11/14 04:12:48;;;;;;;12.40;2.38;;;;;;;8.52;nan;95316.75;2042333;29;20392;-61
2023/11/14 04:13:50;;;;;;;10.35;2.42;;;;;;;8.51;nan;95305.56;2042397;29;20051;-61
2023/11/14 04:14:52;;;;;;;10.95;2.03;;;;;;;8.48;nan;95305.72;2033214;29;20433;-61
2023/11/14 04:15:53;;;;;;;14.85;2.60;;;;;;;8.50;nan;95309.06;2025448;29;20063;-61
2023/11/14 04:16:54;;;;;;;7.88;2.33;;;;;;;8.48;nan;95308.31;2033685;29;20051;-61
2023/11/14 04:17:56;;;;;;;10.18;2.40;;;;;;;8.51;nan;95323.69;2042249;29;20452;-61
2023/11/14 04:18:57;;;;;;;8.65;2.20;;;;;;;8.51;nan;95326.25;2042269;29;20047;-60
2023/11/14 04:19:58;;;;;;;10.40;2.10;;;;;;;8.50;nan;95328.91;2041970;29;20051;-61
2023/11/14 04:20:59;;;;;;;8.10;2.47;;;;;;;8.51;nan;95330.59;2033968;29;20056;-61
2023/11/14 04:22:00;;;;;;;7.97;2.08;;;;;;;8.52;nan;95334.84;2033409;29;20067;-61
2023/11/14 04:23:01;;;;;;;11.40;2.40;;;;;;;8.52;nan;95340.88;2042396;29;20048;-61
2023/11/14 04:24:02;;;;;;;9.82;2.65;;;;;;;8.53;nan;95342.56;2042289;29;20415;-61
2023/11/14 04:25:04;;;;;;;9.50;2.85;;;;;;;8.53;nan;95352.09;2033694;29;20059;-60
2023/11/14 04:26:05;;;;;;;9.32;2.75;;;;;;;8.52;nan;95348.63;2025483;29;20478;-61
2023/11/14 04:27:06;;;;;;;5.32;1.45;;;;;;;8.51;nan;95349.56;2033897;29;20055;-62
2023/11/14 04:28:08;;;;;;;11.32;2.78;;;;;;;8.54;nan;95354.56;2042084;29;20447;-61
2023/11/14 04:29:09;;;;;;;11.25;2.25;;;;;;;8.54;nan;95354.56;2042179;29;20044;-61
2023/11/14 04:30:10;;;;;;;10.18;2.38;;;;;;;8.55;nan;95345.06;2041767;29;20055;-61
2023/11/14 04:31:11;;;;;;;11.10;1.95;;;;;;;8.57;nan;95351.00;2033764;29;20056;-61
2023/11/14 04:32:12;;;;;;;9.70;2.22;;;;;;;8.56;nan;95357.09;2033853;29;20070;-61
2023/11/14 04:33:14;;;;;;;6.82;2.00;;;;;;;8.56;nan;95365.69;2033849;29;20048;-61
2023/11/14 04:34:15;;;;;;;11.25;2.17;;;;;;;8.56;nan;95360.53;2026015;29;20059;-61
2023/11/14 04:35:16;;;;;;;9.65;2.05;;;;;;;8.56;nan;95376.06;2033882;29;20048;-61
2023/11/14 04:36:19;;;;;;;7.18;1.95;;;;;;;8.56;nan;95368.28;2033568;29;20063;-61
2023/11/14 04:37:20;;;;;;;10.95;2.33;;;;;;;8.56;nan;95375.22;2026052;29;20075;-62
2023/11/14 04:38:21;;;;;;;6.80;2.22;;;;;;;8.56;nan;95377.81;2033466;29;20060;-62
2023/11/14 04:39:22;;;;;;;9.57;1.92;;;;;;;8.55;nan;95365.75;2042284;29;20475;-62
2023/11/14 04:40:23;;;;;;;6.72;2.33;;;;;;;8.55;nan;95369.22;2034155;29;20052;-62
2023/11/14 04:41:24;;;;;;;8.70;2.20;;;;;;;8.55;nan;95365.75;2033568;29;20078;-61
2023/11/14 04:42:25;;;;;;;7.38;2.38;;;;;;;8.53;nan;95371.03;2025745;29;20056;-62
2023/11/14 04:43:26;;;;;;;9.90;2.38;;;;;;;8.53;nan;95371.03;2033895;29;20052;-61
2023/11/14 04:44:28;;;;;;;6.25;1.98;;;;;;;8.52;nan;95364.16;2034217;29;20516;-62
2023/11/14 04:45:29;;;;;;;10.18;2.20;;;;;;;8.53;nan;95360.69;2034070;29;20051;-61
2023/11/14 04:46:30;;;;;;;7.90;2.08;;;;;;;8.53;nan;95365.84;2033834;29;20404;-58
2023/11/14 04:47:31;;;;;;;7.72;1.98;;;;;;;8.54;nan;95361.50;2034495;29;20036;-62
2023/11/14 04:48:32;;;;;;;7.85;2.15;;;;;;;8.55;nan;95363.16;2034288;29;20044;-62
2023/11/14 04:49:33;;;;;;;8.23;2.17;;;;;;;8.56;nan;95349.34;2033781;29;20059;-62
2023/11/14 04:50:34;;;;;;;7.68;2.00;;;;;;;8.55;nan;95358.84;2033725;29;20071;-62
2023/11/14 04:51:35;;;;;;;4.22;1.50;;;;;;;8.55;nan;95361.44;2034415;29;20044;-62
2023/11/14 04:52:37;;;;;;;7.65;2.13;;;;;;;8.56;nan;95373.47;2034126;29;20051;-62
2023/11/14 04:53:38;;;;;;;10.85;1.80;;;;;;;8.56;nan;95373.47;2034253;29;20051;-64
2023/11/14 04:54:39;;;;;;;6.95;2.08;;;;;;;8.58;nan;95366.47;2034352;29;20055;-62
2023/11/14 04:55:40;;;;;;;12.15;2.80;;;;;;;8.58;nan;95384.59;2033723;29;20079;-62
2023/11/14 04:56:41;;;;;;;9.27;2.28;;;;;;;8.58;nan;95361.28;2034173;29;20043;-63
2023/11/14 04:57:42;;;;;;;8.70;2.35;;;;;;;8.57;nan;95362.19;2034272;29;20052;-62
2023/11/14 04:58:44;;;;;;;11.40;2.60;;;;;;;8.55;nan;95379.56;2034236;29;20047;-62